sensor_id;sensor_type;location;lat;lon;timestamp;P1;durP1;ratioP1;P2;durP2;ratioP2
62832;SDS011;48891;49.220;6.920;2023-04-01T00:01:44;53.65;;;36.13;;
62832;SDS011;48891;49.220;6.920;2023-04-01T00:04:09;56.22;;;36.83;;
62832;SDS011;48891;49.220;6.920;2023-04-01T00:06:34;55.15;;;38.13;;
62832;SDS011;48891;49.220;6.920;2023-04-01T00:08:59;55.78;;;38.30;;
62832;SDS011;48891;49.220;6.920;2023-04-01T00:11:24;55.42;;;37.88;;
62832;SDS011;48891;49.220;6.920;2023-04-01T00:13:50;55.95;;;36.60;;
62832;SDS011;48891;49.220;6.920;2023-04-01T00:16:15;58.17;;;39.45;;
62832;SDS011;48891;49.220;6.920;2023-04-01T00:18:40;58.83;;;39.47;;
62832;SDS011;48891;49.220;6.920;2023-04-01T00:21:05;55.67;;;36.45;;
62832;SDS011;48891;49.220;6.920;2023-04-01T00:23:31;56.45;;;36.80;;
62832;SDS011;48891;49.220;6.920;2023-04-01T00:25:56;61.53;;;38.72;;
62832;SDS011;48891;49.220;6.920;2023-04-01T00:28:23;57.90;;;39.45;;
62832;SDS011;48891;49.220;6.920;2023-04-01T00:30:48;58.30;;;37.92;;
62832;SDS011;48891;49.220;6.920;2023-04-01T00:33:14;53.22;;;38.03;;
62832;SDS011;48891;49.220;6.920;2023-04-01T00:35:40;56.92;;;38.95;;
62832;SDS011;48891;49.220;6.920;2023-04-01T00:38:05;58.47;;;39.00;;
62832;SDS011;48891;49.220;6.920;2023-04-01T00:40:32;55.97;;;38.15;;
62832;SDS011;48891;49.220;6.920;2023-04-01T00:42:57;59.42;;;39.20;;
62832;SDS011;48891;49.220;6.920;2023-04-01T00:45:24;57.70;;;37.33;;
62832;SDS011;48891;49.220;6.920;2023-04-01T00:47:49;59.10;;;40.65;;
62832;SDS011;48891;49.220;6.920;2023-04-01T00:50:15;61.95;;;41.08;;
62832;SDS011;48891;49.220;6.920;2023-04-01T00:52:40;57.65;;;38.75;;
62832;SDS011;48891;49.220;6.920;2023-04-01T00:55:05;58.13;;;37.83;;
62832;SDS011;48891;49.220;6.920;2023-04-01T00:57:32;57.22;;;37.70;;
62832;SDS011;48891;49.220;6.920;2023-04-01T00:59:59;55.08;;;36.70;;
62832;SDS011;48891;49.220;6.920;2023-04-01T01:02:24;53.38;;;35.63;;
62832;SDS011;48891;49.220;6.920;2023-04-01T01:04:49;54.42;;;35.72;;
62832;SDS011;48891;49.220;6.920;2023-04-01T01:09:58;53.50;;;36.17;;
62832;SDS011;48891;49.220;6.920;2023-04-01T01:14:59;54.20;;;36.20;;
62832;SDS011;48891;49.220;6.920;2023-04-01T01:27:39;61.63;;;38.38;;
62832;SDS011;48891;49.220;6.920;2023-04-01T01:30:20;56.72;;;38.05;;
62832;SDS011;48891;49.220;6.920;2023-04-01T01:35:26;55.72;;;36.67;;
62832;SDS011;48891;49.220;6.920;2023-04-01T01:37:54;52.13;;;35.67;;
62832;SDS011;48891;49.220;6.920;2023-04-01T01:40:20;51.47;;;33.45;;
62832;SDS011;48891;49.220;6.920;2023-04-01T01:42:46;59.42;;;37.78;;
62832;SDS011;48891;49.220;6.920;2023-04-01T01:45:13;59.35;;;38.88;;
62832;SDS011;48891;49.220;6.920;2023-04-01T01:47:39;54.63;;;34.67;;
62832;SDS011;48891;49.220;6.920;2023-04-01T01:50:05;52.25;;;34.65;;
62832;SDS011;48891;49.220;6.920;2023-04-01T01:52:31;55.30;;;35.85;;
62832;SDS011;48891;49.220;6.920;2023-04-01T01:54:57;56.92;;;38.00;;
62832;SDS011;48891;49.220;6.920;2023-04-01T01:57:23;61.22;;;39.50;;
62832;SDS011;48891;49.220;6.920;2023-04-01T01:59:49;54.92;;;35.25;;
62832;SDS011;48891;49.220;6.920;2023-04-01T02:02:16;57.97;;;37.05;;
62832;SDS011;48891;49.220;6.920;2023-04-01T02:04:42;54.95;;;36.42;;
62832;SDS011;48891;49.220;6.920;2023-04-01T02:07:10;58.72;;;37.60;;
62832;SDS011;48891;49.220;6.920;2023-04-01T02:09:37;54.65;;;36.20;;
62832;SDS011;48891;49.220;6.920;2023-04-01T02:12:04;55.25;;;36.05;;
62832;SDS011;48891;49.220;6.920;2023-04-01T02:14:38;59.58;;;36.67;;
62832;SDS011;48891;49.220;6.920;2023-04-01T02:17:07;53.75;;;36.65;;
62832;SDS011;48891;49.220;6.920;2023-04-01T02:19:36;53.17;;;34.28;;
62832;SDS011;48891;49.220;6.920;2023-04-01T02:22:03;55.95;;;36.67;;
62832;SDS011;48891;49.220;6.920;2023-04-01T02:24:30;52.47;;;35.50;;
62832;SDS011;48891;49.220;6.920;2023-04-01T02:26:55;58.40;;;36.08;;
62832;SDS011;48891;49.220;6.920;2023-04-01T02:29:21;58.53;;;37.20;;
62832;SDS011;48891;49.220;6.920;2023-04-01T02:31:48;54.63;;;35.17;;
62832;SDS011;48891;49.220;6.920;2023-04-01T02:34:14;53.20;;;35.30;;
62832;SDS011;48891;49.220;6.920;2023-04-01T02:36:39;53.65;;;34.15;;
62832;SDS011;48891;49.220;6.920;2023-04-01T02:39:05;55.97;;;36.37;;
62832;SDS011;48891;49.220;6.920;2023-04-01T02:41:30;53.22;;;35.22;;
62832;SDS011;48891;49.220;6.920;2023-04-01T02:43:55;50.25;;;34.00;;
62832;SDS011;48891;49.220;6.920;2023-04-01T02:46:20;51.38;;;33.95;;
62832;SDS011;48891;49.220;6.920;2023-04-01T02:48:45;52.78;;;34.38;;
62832;SDS011;48891;49.220;6.920;2023-04-01T02:51:11;53.67;;;33.47;;
62832;SDS011;48891;49.220;6.920;2023-04-01T02:53:36;53.17;;;33.60;;
62832;SDS011;48891;49.220;6.920;2023-04-01T02:56:01;54.77;;;35.23;;
62832;SDS011;48891;49.220;6.920;2023-04-01T02:58:26;52.37;;;34.63;;
62832;SDS011;48891;49.220;6.920;2023-04-01T03:00:51;56.42;;;36.75;;
62832;SDS011;48891;49.220;6.920;2023-04-01T03:03:16;50.42;;;33.00;;
62832;SDS011;48891;49.220;6.920;2023-04-01T03:05:41;52.28;;;34.95;;
62832;SDS011;48891;49.220;6.920;2023-04-01T03:08:07;53.38;;;33.83;;
62832;SDS011;48891;49.220;6.920;2023-04-01T03:10:32;52.72;;;35.50;;
62832;SDS011;48891;49.220;6.920;2023-04-01T03:12:57;50.28;;;31.90;;
62832;SDS011;48891;49.220;6.920;2023-04-01T03:15:22;48.72;;;31.58;;
62832;SDS011;48891;49.220;6.920;2023-04-01T03:17:47;53.47;;;32.90;;
62832;SDS011;48891;49.220;6.920;2023-04-01T03:20:13;49.33;;;32.33;;
62832;SDS011;48891;49.220;6.920;2023-04-01T03:22:38;50.85;;;31.63;;
62832;SDS011;48891;49.220;6.920;2023-04-01T03:25:03;49.67;;;33.00;;
62832;SDS011;48891;49.220;6.920;2023-04-01T03:27:29;57.47;;;34.33;;
62832;SDS011;48891;49.220;6.920;2023-04-01T03:29:54;49.70;;;32.08;;
62832;SDS011;48891;49.220;6.920;2023-04-01T03:32:19;48.25;;;32.55;;
62832;SDS011;48891;49.220;6.920;2023-04-01T03:34:44;51.87;;;32.43;;
62832;SDS011;48891;49.220;6.920;2023-04-01T03:37:09;48.20;;;31.58;;
62832;SDS011;48891;49.220;6.920;2023-04-01T03:39:34;48.22;;;31.92;;
62832;SDS011;48891;49.220;6.920;2023-04-01T03:41:59;52.80;;;32.88;;
62832;SDS011;48891;49.220;6.920;2023-04-01T03:44:24;48.88;;;30.40;;
62832;SDS011;48891;49.220;6.920;2023-04-01T03:46:50;51.13;;;32.00;;
62832;SDS011;48891;49.220;6.920;2023-04-01T03:49:15;50.40;;;31.63;;
62832;SDS011;48891;49.220;6.920;2023-04-01T03:51:41;47.42;;;29.83;;
62832;SDS011;48891;49.220;6.920;2023-04-01T03:54:06;50.88;;;31.88;;
62832;SDS011;48891;49.220;6.920;2023-04-01T03:56:32;47.30;;;30.93;;
62832;SDS011;48891;49.220;6.920;2023-04-01T03:58:57;50.17;;;31.88;;
62832;SDS011;48891;49.220;6.920;2023-04-01T04:01:22;45.58;;;29.50;;
62832;SDS011;48891;49.220;6.920;2023-04-01T04:03:48;49.73;;;31.23;;
62832;SDS011;48891;49.220;6.920;2023-04-01T04:06:13;50.53;;;31.40;;
62832;SDS011;48891;49.220;6.920;2023-04-01T04:08:39;50.53;;;32.42;;
62832;SDS011;48891;49.220;6.920;2023-04-01T04:11:04;45.15;;;29.45;;
62832;SDS011;48891;49.220;6.920;2023-04-01T04:13:29;52.93;;;31.50;;
62832;SDS011;48891;49.220;6.920;2023-04-01T04:15:54;50.83;;;31.70;;
62832;SDS011;48891;49.220;6.920;2023-04-01T04:18:19;47.17;;;29.60;;
62832;SDS011;48891;49.220;6.920;2023-04-01T04:20:45;43.13;;;28.77;;
62832;SDS011;48891;49.220;6.920;2023-04-01T04:23:10;46.63;;;29.02;;
62832;SDS011;48891;49.220;6.920;2023-04-01T04:25:35;45.40;;;28.38;;
62832;SDS011;48891;49.220;6.920;2023-04-01T04:28:00;45.67;;;30.10;;
62832;SDS011;48891;49.220;6.920;2023-04-01T04:30:25;46.05;;;29.67;;
62832;SDS011;48891;49.220;6.920;2023-04-01T04:32:50;45.75;;;29.27;;
62832;SDS011;48891;49.220;6.920;2023-04-01T04:35:16;45.95;;;30.45;;
62832;SDS011;48891;49.220;6.920;2023-04-01T04:37:41;49.38;;;29.88;;
62832;SDS011;48891;49.220;6.920;2023-04-01T04:40:06;45.72;;;27.83;;
62832;SDS011;48891;49.220;6.920;2023-04-01T04:42:31;45.97;;;28.13;;
62832;SDS011;48891;49.220;6.920;2023-04-01T04:44:56;46.83;;;29.23;;
62832;SDS011;48891;49.220;6.920;2023-04-01T04:47:22;42.17;;;27.98;;
62832;SDS011;48891;49.220;6.920;2023-04-01T04:49:47;45.03;;;27.23;;
62832;SDS011;48891;49.220;6.920;2023-04-01T04:52:12;45.17;;;28.02;;
62832;SDS011;48891;49.220;6.920;2023-04-01T04:54:37;45.35;;;29.02;;
62832;SDS011;48891;49.220;6.920;2023-04-01T04:57:02;40.63;;;26.33;;
62832;SDS011;48891;49.220;6.920;2023-04-01T04:59:27;43.22;;;27.65;;
62832;SDS011;48891;49.220;6.920;2023-04-01T05:01:52;41.20;;;25.92;;
62832;SDS011;48891;49.220;6.920;2023-04-01T05:04:18;40.72;;;25.63;;
62832;SDS011;48891;49.220;6.920;2023-04-01T05:06:43;43.17;;;25.70;;
62832;SDS011;48891;49.220;6.920;2023-04-01T05:09:08;41.78;;;25.50;;
62832;SDS011;48891;49.220;6.920;2023-04-01T05:11:33;41.15;;;26.25;;
62832;SDS011;48891;49.220;6.920;2023-04-01T05:13:58;39.05;;;24.65;;
62832;SDS011;48891;49.220;6.920;2023-04-01T05:16:23;37.75;;;24.88;;
62832;SDS011;48891;49.220;6.920;2023-04-01T05:18:49;41.72;;;25.45;;
62832;SDS011;48891;49.220;6.920;2023-04-01T05:21:14;44.35;;;26.70;;
62832;SDS011;48891;49.220;6.920;2023-04-01T05:23:39;43.28;;;26.55;;
62832;SDS011;48891;49.220;6.920;2023-04-01T05:26:05;40.75;;;24.75;;
62832;SDS011;48891;49.220;6.920;2023-04-01T05:28:30;38.65;;;24.98;;
62832;SDS011;48891;49.220;6.920;2023-04-01T05:30:57;46.05;;;26.92;;
62832;SDS011;48891;49.220;6.920;2023-04-01T05:33:23;43.22;;;25.67;;
62832;SDS011;48891;49.220;6.920;2023-04-01T05:35:48;44.13;;;26.80;;
62832;SDS011;48891;49.220;6.920;2023-04-01T05:38:13;40.83;;;25.77;;
62832;SDS011;48891;49.220;6.920;2023-04-01T05:40:38;42.13;;;25.67;;
62832;SDS011;48891;49.220;6.920;2023-04-01T05:43:03;37.03;;;24.20;;
62832;SDS011;48891;49.220;6.920;2023-04-01T05:45:28;41.92;;;27.17;;
62832;SDS011;48891;49.220;6.920;2023-04-01T05:47:53;39.53;;;24.08;;
62832;SDS011;48891;49.220;6.920;2023-04-01T05:50:19;43.55;;;26.55;;
62832;SDS011;48891;49.220;6.920;2023-04-01T05:52:44;37.70;;;24.63;;
62832;SDS011;48891;49.220;6.920;2023-04-01T05:55:09;38.25;;;23.80;;
62832;SDS011;48891;49.220;6.920;2023-04-01T05:57:34;39.60;;;24.00;;
62832;SDS011;48891;49.220;6.920;2023-04-01T05:59:59;35.22;;;22.52;;
62832;SDS011;48891;49.220;6.920;2023-04-01T06:02:24;35.43;;;23.00;;
62832;SDS011;48891;49.220;6.920;2023-04-01T06:04:49;41.17;;;23.97;;
62832;SDS011;48891;49.220;6.920;2023-04-01T06:07:19;39.65;;;24.38;;
62832;SDS011;48891;49.220;6.920;2023-04-01T06:09:44;37.47;;;23.45;;
62832;SDS011;48891;49.220;6.920;2023-04-01T06:24:39;39.22;;;24.30;;
62832;SDS011;48891;49.220;6.920;2023-04-01T06:38:17;35.35;;;22.58;;
62832;SDS011;48891;49.220;6.920;2023-04-01T06:43:25;36.95;;;22.02;;
62832;SDS011;48891;49.220;6.920;2023-04-01T06:46:11;35.42;;;21.67;;
62832;SDS011;48891;49.220;6.920;2023-04-01T06:56:12;35.72;;;21.00;;
62832;SDS011;48891;49.220;6.920;2023-04-01T06:58:44;31.20;;;19.77;;
62832;SDS011;48891;49.220;6.920;2023-04-01T07:01:12;32.83;;;20.92;;
62832;SDS011;48891;49.220;6.920;2023-04-01T07:03:40;32.85;;;20.33;;
62832;SDS011;48891;49.220;6.920;2023-04-01T07:06:08;34.45;;;21.50;;
62832;SDS011;48891;49.220;6.920;2023-04-01T07:08:35;34.28;;;20.70;;
62832;SDS011;48891;49.220;6.920;2023-04-01T07:11:02;35.57;;;22.03;;
62832;SDS011;48891;49.220;6.920;2023-04-01T07:18:36;32.42;;;19.63;;
62832;SDS011;48891;49.220;6.920;2023-04-01T07:21:02;31.85;;;19.75;;
62832;SDS011;48891;49.220;6.920;2023-04-01T09:50:29;29.80;;;18.08;;
62832;SDS011;48891;49.220;6.920;2023-04-01T09:53:57;30.85;;;18.92;;
62832;SDS011;48891;49.220;6.920;2023-04-01T10:14:37;29.60;;;18.95;;
62832;SDS011;48891;49.220;6.920;2023-04-01T10:20:07;31.23;;;20.50;;
62832;SDS011;48891;49.220;6.920;2023-04-01T10:25:29;32.85;;;20.50;;
62832;SDS011;48891;49.220;6.920;2023-04-01T10:38:28;33.17;;;21.60;;
62832;SDS011;48891;49.220;6.920;2023-04-01T10:43:46;32.38;;;20.92;;
62832;SDS011;48891;49.220;6.920;2023-04-01T10:46:26;36.63;;;22.95;;
62832;SDS011;48891;49.220;6.920;2023-04-01T10:56:36;31.08;;;20.08;;
62832;SDS011;48891;49.220;6.920;2023-04-01T11:14:33;33.55;;;22.50;;
62832;SDS011;48891;49.220;6.920;2023-04-01T11:22:24;33.05;;;21.83;;
62832;SDS011;48891;49.220;6.920;2023-04-01T11:27:29;33.40;;;22.70;;
62832;SDS011;48891;49.220;6.920;2023-04-01T11:37:42;34.53;;;23.48;;
62832;SDS011;48891;49.220;6.920;2023-04-01T11:45:35;33.70;;;22.85;;
62832;SDS011;48891;49.220;6.920;2023-04-01T11:55:57;33.17;;;23.00;;
62832;SDS011;48891;49.220;6.920;2023-04-01T12:01:28;32.20;;;23.27;;
62832;SDS011;48891;49.220;6.920;2023-04-01T12:09:41;34.55;;;22.27;;
62832;SDS011;48891;49.220;6.920;2023-04-01T12:12:22;35.38;;;23.25;;
62832;SDS011;48891;49.220;6.920;2023-04-01T12:22:49;33.97;;;23.83;;
62832;SDS011;48891;49.220;6.920;2023-04-01T12:30:42;32.10;;;22.98;;
62832;SDS011;48891;49.220;6.920;2023-04-01T12:36:10;31.83;;;22.55;;
62832;SDS011;48891;49.220;6.920;2023-04-01T12:41:30;32.35;;;22.63;;
62832;SDS011;48891;49.220;6.920;2023-04-01T13:09:49;32.58;;;24.02;;
62832;SDS011;48891;49.220;6.920;2023-04-01T13:12:22;32.90;;;23.90;;
62832;SDS011;48891;49.220;6.920;2023-04-01T13:19:47;34.40;;;23.90;;
62832;SDS011;48891;49.220;6.920;2023-04-01T13:29:32;33.92;;;24.42;;
62832;SDS011;48891;49.220;6.920;2023-04-01T14:13:12;35.70;;;24.42;;
62832;SDS011;48891;49.220;6.920;2023-04-01T14:26:02;35.42;;;25.35;;
62832;SDS011;48891;49.220;6.920;2023-04-01T14:28:30;34.55;;;24.90;;
62832;SDS011;48891;49.220;6.920;2023-04-01T14:31:00;37.58;;;26.40;;
62832;SDS011;48891;49.220;6.920;2023-04-01T14:49:20;35.35;;;25.83;;
62832;SDS011;48891;49.220;6.920;2023-04-01T14:51:46;35.03;;;25.33;;
62832;SDS011;48891;49.220;6.920;2023-04-01T14:54:19;37.45;;;25.85;;
62832;SDS011;48891;49.220;6.920;2023-04-01T14:56:51;35.03;;;25.58;;
62832;SDS011;48891;49.220;6.920;2023-04-01T14:59:27;36.63;;;25.92;;
62832;SDS011;48891;49.220;6.920;2023-04-01T15:02:01;34.13;;;24.75;;
62832;SDS011;48891;49.220;6.920;2023-04-01T15:17:48;35.00;;;25.02;;
62832;SDS011;48891;49.220;6.920;2023-04-01T15:20:32;37.78;;;26.10;;
62832;SDS011;48891;49.220;6.920;2023-04-01T15:31:15;36.38;;;25.83;;
62832;SDS011;48891;49.220;6.920;2023-04-01T15:36:20;34.78;;;25.13;;
62832;SDS011;48891;49.220;6.920;2023-04-01T15:41:16;35.03;;;24.90;;
62832;SDS011;48891;49.220;6.920;2023-04-01T15:43:48;35.53;;;25.48;;
62832;SDS011;48891;49.220;6.920;2023-04-01T15:49:01;34.50;;;24.48;;
62832;SDS011;48891;49.220;6.920;2023-04-01T16:04:59;32.08;;;22.88;;
62832;SDS011;48891;49.220;6.920;2023-04-01T16:15:28;34.78;;;24.05;;
62832;SDS011;48891;49.220;6.920;2023-04-01T16:20:20;33.17;;;23.50;;
62832;SDS011;48891;49.220;6.920;2023-04-01T16:22:57;32.40;;;23.17;;
62832;SDS011;48891;49.220;6.920;2023-04-01T16:25:32;32.72;;;24.00;;
62832;SDS011;48891;49.220;6.920;2023-04-01T16:28:03;31.48;;;22.30;;
62832;SDS011;48891;49.220;6.920;2023-04-01T16:33:32;31.80;;;22.83;;
62832;SDS011;48891;49.220;6.920;2023-04-01T16:41:17;32.33;;;22.52;;
62832;SDS011;48891;49.220;6.920;2023-04-01T16:43:48;32.90;;;23.30;;
62832;SDS011;48891;49.220;6.920;2023-04-01T16:48:56;30.40;;;22.02;;
62832;SDS011;48891;49.220;6.920;2023-04-01T16:51:22;31.90;;;22.38;;
62832;SDS011;48891;49.220;6.920;2023-04-01T16:53:49;32.20;;;22.77;;
62832;SDS011;48891;49.220;6.920;2023-04-01T16:56:21;30.27;;;22.58;;
62832;SDS011;48891;49.220;6.920;2023-04-01T17:04:04;29.27;;;22.48;;
62832;SDS011;48891;49.220;6.920;2023-04-01T17:11:39;29.35;;;21.63;;
62832;SDS011;48891;49.220;6.920;2023-04-01T17:19:45;29.05;;;21.15;;
62832;SDS011;48891;49.220;6.920;2023-04-01T17:35:19;29.42;;;21.27;;
62832;SDS011;48891;49.220;6.920;2023-04-01T17:37:54;29.38;;;20.65;;
62832;SDS011;48891;49.220;6.920;2023-04-01T17:40:29;30.75;;;22.23;;
62832;SDS011;48891;49.220;6.920;2023-04-01T17:50:41;31.08;;;21.73;;
62832;SDS011;48891;49.220;6.920;2023-04-01T17:58:32;29.70;;;20.98;;
62832;SDS011;48891;49.220;6.920;2023-04-01T18:01:03;30.75;;;21.00;;
62832;SDS011;48891;49.220;6.920;2023-04-01T18:23:59;27.75;;;19.10;;
62832;SDS011;48891;49.220;6.920;2023-04-01T18:31:39;29.48;;;21.13;;
62832;SDS011;48891;49.220;6.920;2023-04-01T18:34:07;26.90;;;20.67;;
62832;SDS011;48891;49.220;6.920;2023-04-01T18:39:18;29.20;;;21.23;;
62832;SDS011;48891;49.220;6.920;2023-04-01T18:41:55;27.10;;;21.35;;
62832;SDS011;48891;49.220;6.920;2023-04-01T18:44:41;28.90;;;21.90;;
62832;SDS011;48891;49.220;6.920;2023-04-01T18:52:31;26.92;;;19.92;;
62832;SDS011;48891;49.220;6.920;2023-04-01T18:57:25;28.65;;;20.55;;
62832;SDS011;48891;49.220;6.920;2023-04-01T18:59:55;30.23;;;21.55;;
62832;SDS011;48891;49.220;6.920;2023-04-01T19:04:50;29.45;;;21.48;;
62832;SDS011;48891;49.220;6.920;2023-04-01T19:07:28;28.20;;;21.80;;
62832;SDS011;48891;49.220;6.920;2023-04-01T19:10:12;29.52;;;21.17;;
62832;SDS011;48891;49.220;6.920;2023-04-01T19:12:56;27.77;;;20.38;;
62832;SDS011;48891;49.220;6.920;2023-04-01T19:15:44;28.67;;;20.45;;
62832;SDS011;48891;49.220;6.920;2023-04-01T19:20:59;28.45;;;21.08;;
62832;SDS011;48891;49.220;6.920;2023-04-01T19:25:54;28.48;;;21.58;;
62832;SDS011;48891;49.220;6.920;2023-04-01T19:36:28;27.52;;;20.65;;
62832;SDS011;48891;49.220;6.920;2023-04-01T19:39:02;27.90;;;21.75;;
62832;SDS011;48891;49.220;6.920;2023-04-01T19:41:46;28.45;;;21.02;;
62832;SDS011;48891;49.220;6.920;2023-04-01T19:44:21;27.30;;;20.77;;
62832;SDS011;48891;49.220;6.920;2023-04-01T19:46:51;27.88;;;21.10;;
62832;SDS011;48891;49.220;6.920;2023-04-01T19:51:48;27.30;;;20.10;;
62832;SDS011;48891;49.220;6.920;2023-04-01T20:04:34;31.25;;;22.55;;
62832;SDS011;48891;49.220;6.920;2023-04-01T20:12:21;28.80;;;20.95;;
62832;SDS011;48891;49.220;6.920;2023-04-01T20:14:50;28.27;;;20.80;;
62832;SDS011;48891;49.220;6.920;2023-04-01T20:19:45;27.20;;;21.08;;
62832;SDS011;48891;49.220;6.920;2023-04-01T20:24:59;28.20;;;21.33;;
62832;SDS011;48891;49.220;6.920;2023-04-01T20:27:26;29.98;;;22.42;;
62832;SDS011;48891;49.220;6.920;2023-04-01T20:33:02;28.00;;;20.67;;
62832;SDS011;48891;49.220;6.920;2023-04-01T20:35:56;29.42;;;22.45;;
62832;SDS011;48891;49.220;6.920;2023-04-01T20:40:52;29.20;;;21.00;;
62832;SDS011;48891;49.220;6.920;2023-04-01T20:46:18;27.25;;;20.92;;
62832;SDS011;48891;49.220;6.920;2023-04-01T20:51:36;31.25;;;23.65;;
62832;SDS011;48891;49.220;6.920;2023-04-01T21:02:23;32.03;;;23.42;;
62832;SDS011;48891;49.220;6.920;2023-04-01T21:15:27;30.15;;;22.33;;
62832;SDS011;48891;49.220;6.920;2023-04-01T21:17:58;31.17;;;23.40;;
62832;SDS011;48891;49.220;6.920;2023-04-01T21:22:59;29.67;;;22.65;;
62832;SDS011;48891;49.220;6.920;2023-04-01T21:33:39;33.38;;;24.33;;
62832;SDS011;48891;49.220;6.920;2023-04-01T21:39:02;31.10;;;23.42;;
62832;SDS011;48891;49.220;6.920;2023-04-01T21:41:34;32.78;;;23.92;;
62832;SDS011;48891;49.220;6.920;2023-04-01T22:00:09;33.70;;;24.70;;
62832;SDS011;48891;49.220;6.920;2023-04-01T22:07:42;31.00;;;23.73;;
62832;SDS011;48891;49.220;6.920;2023-04-01T22:12:41;32.13;;;24.30;;
62832;SDS011;48891;49.220;6.920;2023-04-01T22:15:40;32.88;;;24.20;;
62832;SDS011;48891;49.220;6.920;2023-04-01T22:18:30;31.80;;;24.25;;
62832;SDS011;48891;49.220;6.920;2023-04-01T22:20:54;31.15;;;23.58;;
62832;SDS011;48891;49.220;6.920;2023-04-01T22:23:26;31.95;;;23.40;;
62832;SDS011;48891;49.220;6.920;2023-04-01T22:26:11;32.72;;;24.45;;
62832;SDS011;48891;49.220;6.920;2023-04-01T22:31:21;32.05;;;23.95;;
62832;SDS011;48891;49.220;6.920;2023-04-01T22:38:51;31.10;;;23.75;;
62832;SDS011;48891;49.220;6.920;2023-04-01T22:44:05;33.75;;;24.95;;
62832;SDS011;48891;49.220;6.920;2023-04-01T22:59:00;35.45;;;25.25;;
62832;SDS011;48891;49.220;6.920;2023-04-01T23:01:29;33.28;;;26.15;;
62832;SDS011;48891;49.220;6.920;2023-04-01T23:03:55;33.67;;;26.20;;
62832;SDS011;48891;49.220;6.920;2023-04-01T23:06:23;32.92;;;25.02;;
62832;SDS011;48891;49.220;6.920;2023-04-01T23:09:05;35.72;;;25.63;;
62832;SDS011;48891;49.220;6.920;2023-04-01T23:11:35;35.22;;;26.48;;
62832;SDS011;48891;49.220;6.920;2023-04-01T23:16:28;34.92;;;27.10;;
62832;SDS011;48891;49.220;6.920;2023-04-01T23:18:57;37.38;;;26.80;;
62832;SDS011;48891;49.220;6.920;2023-04-01T23:24:09;35.05;;;26.92;;
62832;SDS011;48891;49.220;6.920;2023-04-01T23:29:02;35.25;;;26.20;;
62832;SDS011;48891;49.220;6.920;2023-04-01T23:31:32;33.15;;;26.83;;
62832;SDS011;48891;49.220;6.920;2023-04-01T23:34:01;36.05;;;27.50;;
62832;SDS011;48891;49.220;6.920;2023-04-01T23:36:28;35.22;;;27.13;;
62832;SDS011;48891;49.220;6.920;2023-04-01T23:38:53;34.45;;;26.52;;
62832;SDS011;48891;49.220;6.920;2023-04-01T23:41:23;35.42;;;26.65;;
62832;SDS011;48891;49.220;6.920;2023-04-01T23:43:52;35.38;;;26.88;;
62832;SDS011;48891;49.220;6.920;2023-04-01T23:46:19;34.33;;;25.95;;
62832;SDS011;48891;49.220;6.920;2023-04-01T23:48:45;37.35;;;28.75;;
62832;SDS011;48891;49.220;6.920;2023-04-01T23:51:18;35.22;;;25.85;;
62832;SDS011;48891;49.220;6.920;2023-04-01T23:53:44;35.78;;;27.52;;
62832;SDS011;48891;49.220;6.920;2023-04-01T23:56:10;38.20;;;28.27;;
